Time;durP1;ratioP1;P1;durP2;ratioP2;P2;SDS_P1;SDS_P2;PMS_P1;PMS_P2;Temp;Humidity;BMP_temperature;BMP_pressure;BME280_temperature;BME280_humidity;BME280_pressure;Samples;Min_cycle;Max_cycle;Signal;HPM_P1;HPM_P2
2023/03/27 00:00:57;;;;;;;1.98;1.38;;;;;;;11.46;45.18;97261.19;5051554;28;20236;-60
2023/03/27 00:03:24;;;;;;;1.50;1.40;;;;;;;11.84;45.31;97322.53;5051646;28;20213;-61
2023/03/27 00:06:00;;;;;;;1.60;1.50;;;;;;;11.94;45.10;97323.28;5051609;28;20190;-60
2023/03/27 00:08:26;;;;;;;1.48;1.38;;;;;;;11.90;44.93;97312.41;5051600;28;20267;-60
2023/03/27 00:10:52;;;;;;;5.07;1.40;;;;;;;11.72;44.65;97285.56;5051495;28;20194;-60
2023/03/27 00:13:18;;;;;;;1.25;1.23;;;;;;;11.95;45.36;97319.75;5051436;28;20194;-60
2023/03/27 00:15:45;;;;;;;1.63;1.48;;;;;;;11.68;44.92;97275.63;5051453;28;20250;-60
2023/03/27 00:18:12;;;;;;;1.70;1.35;;;;;;;11.74;45.21;97290.63;5053162;28;20696;-60
2023/03/27 00:20:38;;;;;;;1.50;1.38;;;;;;;11.35;45.01;97232.00;5053261;28;20330;-60
2023/03/27 00:23:05;;;;;;;1.38;1.27;;;;;;;11.62;45.11;97265.81;5053632;28;20178;-61
2023/03/27 00:25:32;;;;;;;3.13;1.40;;;;;;;12.07;44.80;97334.22;5053264;28;20567;-60
2023/03/27 00:27:58;;;;;;;1.48;1.38;;;;;;;11.66;45.06;97256.78;5050958;28;20193;-62
2023/03/27 00:30:25;;;;;;;2.28;1.10;;;;;;;12.14;45.10;97320.50;5051149;28;20589;-61
2023/03/27 00:32:54;;;;;;;1.70;1.60;;;;;;;12.07;44.74;97303.09;5051017;28;20194;-61
2023/03/27 00:35:20;;;;;;;1.13;1.13;;;;;;;11.66;45.06;97229.13;5051069;28;20582;-61
2023/03/27 00:37:45;;;;;;;1.48;1.38;;;;;;;11.54;44.86;97219.03;5050821;28;20630;-61
2023/03/27 00:40:17;;;;;;;1.30;1.30;;;;;;;12.01;45.14;97301.06;5050899;28;20247;-61
2023/03/27 00:42:45;;;;;;;2.20;1.30;;;;;;;11.74;45.06;97259.53;5050876;28;20189;-61
2023/03/27 00:45:31;;;;;;;2.38;1.50;;;;;;;12.11;44.98;97310.44;5050757;28;20730;-61
2023/03/27 00:48:01;;;;;;;1.10;1.10;;;;;;;11.86;44.92;97263.56;5050906;28;20277;-61
2023/03/27 00:50:33;;;;;;;1.77;1.25;;;;;;;12.08;45.15;97299.53;5050772;28;20180;-61
2023/03/27 00:53:08;;;;;;;1.15;1.15;;;;;;;11.85;44.97;97249.78;5050726;28;20185;-60
2023/03/27 00:55:37;;;;;;;1.20;1.10;;;;;;;11.82;45.44;97236.31;5050499;28;20347;-61
2023/03/27 00:58:08;;;;;;;2.20;1.27;;;;;;;11.81;45.16;97203.56;5050846;28;20225;-61
2023/03/27 01:00:34;;;;;;;1.40;1.30;;;;;;;12.34;44.94;97279.78;5053027;28;20170;-61
2023/03/27 01:03:03;;;;;;;3.70;1.30;;;;;;;12.45;44.59;97289.97;5052879;28;20230;-61
2023/03/27 01:05:29;;;;;;;1.38;1.27;;;;;;;12.52;44.78;97263.31;5050292;28;20185;-60
2023/03/27 01:07:56;;;;;;;1.35;1.25;;;;;;;12.17;44.30;97175.03;5050423;28;20186;-60
2023/03/27 01:10:32;;;;;;;1.50;1.40;;;;;;;12.69;44.66;97264.31;5050353;28;20208;-60
2023/03/27 01:13:12;;;;;;;1.50;1.40;;;;;;;12.61;43.89;97230.50;5050628;28;20173;-61
2023/03/27 01:15:37;;;;;;;1.75;1.00;;;;;;;13.01;44.27;97275.06;5050309;28;20259;-61
2023/03/27 01:18:05;;;;;;;1.65;1.40;;;;;;;13.11;43.78;97262.81;5050193;28;20252;-61
2023/03/27 01:20:52;;;;;;;1.40;1.30;;;;;;;13.18;43.55;97264.66;5050193;28;20189;-61
2023/03/27 01:23:38;;;;;;;1.30;1.20;;;;;;;13.11;43.68;97265.41;5050169;28;20741;-61
2023/03/27 01:26:21;;;;;;;1.55;1.45;;;;;;;13.00;44.10;97245.69;5050138;28;20197;-61
2023/03/27 01:29:01;;;;;;;1.85;1.65;;;;;;;13.02;43.98;97248.13;5050119;28;20185;-60
2023/03/27 01:32:24;;;;;;;3.15;1.35;;;;;;;13.03;44.19;97262.75;5049569;28;20188;-61
2023/03/27 01:35:05;;;;;;;2.22;2.03;;;;;;;13.06;44.48;97258.06;5029989;28;20182;-61
2023/03/27 01:37:42;;;;;;;2.95;2.65;;;;;;;13.04;44.65;97256.56;5048283;28;20212;-61
2023/03/27 01:40:36;;;;;;;6.68;3.17;;;;;;;12.88;45.37;97240.81;5049909;28;20247;-61
2023/03/27 01:43:11;;;;;;;5.53;3.28;;;;;;;12.92;45.42;97252.53;5049875;28;20703;-61
2023/03/27 01:45:45;;;;;;;3.40;2.47;;;;;;;12.92;44.86;97244.75;5049902;28;20676;-61
2023/03/27 01:48:25;;;;;;;2.08;1.88;;;;;;;12.89;44.88;97229.47;5049869;28;20235;-61
2023/03/27 01:51:00;;;;;;;2.95;1.40;;;;;;;12.70;44.58;97206.25;5049875;28;20206;-61
2023/03/27 01:53:35;;;;;;;1.65;1.55;;;;;;;12.50;45.12;97171.03;5049846;28;20276;-61
2023/03/27 01:56:09;;;;;;;1.50;1.40;;;;;;;12.07;45.27;97111.25;5049698;28;20197;-60
2023/03/27 01:58:45;;;;;;;2.00;1.67;;;;;;;12.10;45.92;97122.13;5049649;28;20255;-60
2023/03/27 02:01:15;;;;;;;1.90;1.77;;;;;;;12.29;45.82;97153.13;5049695;28;20173;-60
2023/03/27 02:03:46;;;;;;;1.70;1.55;;;;;;;12.43;45.66;97199.31;5049702;28;20170;-60
2023/03/27 02:06:16;;;;;;;1.85;1.50;;;;;;;12.36;46.10;97192.28;5051231;28;20664;-61
2023/03/27 02:08:53;;;;;;;1.30;1.30;;;;;;;12.12;46.43;97158.28;5051772;28;20195;-61
2023/03/27 02:11:23;;;;;;;2.45;1.85;;;;;;;12.04;46.24;97129.66;5051667;28;20662;-61
2023/03/27 02:13:54;;;;;;;4.15;2.08;;;;;;;12.06;46.14;97118.19;5051889;28;20667;-61
2023/03/27 02:16:32;;;;;;;2.45;2.25;;;;;;;12.06;46.98;97130.34;5051955;28;20162;-61
2023/03/27 02:19:02;;;;;;;1.95;1.85;;;;;;;12.27;47.23;97165.44;5051898;28;20158;-60
2023/03/27 02:21:30;;;;;;;2.33;2.13;;;;;;;12.17;47.66;97194.97;5051816;28;20181;-60
2023/03/27 02:23:56;;;;;;;2.67;2.45;;;;;;;12.09;47.44;97187.88;5051838;28;20181;-61
2023/03/27 02:26:22;;;;;;;9.93;2.15;;;;;;;12.07;47.93;97196.81;5051800;28;20185;-60
2023/03/27 02:29:25;;;;;;;3.13;2.10;;;;;;;12.08;47.55;97195.84;5051756;28;20170;-60
2023/03/27 02:31:53;;;;;;;2.45;1.83;;;;;;;12.28;48.20;97199.94;5049319;28;20197;-61
2023/03/27 02:34:43;;;;;;;3.03;2.15;;;;;;;12.33;47.97;97182.19;5049299;28;20267;-61
2023/03/27 02:37:27;;;;;;;3.45;2.20;;;;;;;12.36;48.12;97179.31;5049219;28;20217;-61
2023/03/27 02:40:13;;;;;;;2.22;1.77;;;;;;;12.01;48.54;97138.56;5049454;28;20170;-61
2023/03/27 02:42:41;;;;;;;2.00;1.90;;;;;;;12.26;48.79;97179.34;5049329;28;20193;-61
2023/03/27 02:45:12;;;;;;;2.10;2.00;;;;;;;12.23;48.88;97174.47;5051953;28;20189;-61
2023/03/27 02:47:55;;;;;;;4.00;2.10;;;;;;;12.33;48.92;97172.63;5053152;28;20174;-61
2023/03/27 02:50:27;;;;;;;3.08;2.10;;;;;;;11.86;48.71;97087.34;5053062;28;20208;-61
2023/03/27 02:52:58;;;;;;;2.92;2.20;;;;;;;11.89;48.66;97087.88;5053058;28;20174;-60
2023/03/27 02:55:28;;;;;;;2.58;2.30;;;;;;;12.41;48.54;97164.09;5052980;28;20221;-61
2023/03/27 02:58:02;;;;;;;4.15;2.15;;;;;;;11.94;49.20;97124.53;5013070;28;20634;-61
2023/03/27 03:00:32;;;;;;;3.60;2.45;;;;;;;11.73;49.81;97115.38;5013185;28;20187;-61
2023/03/27 03:03:19;;;;;;;5.25;2.33;;;;;;;11.42;50.63;97077.69;5013129;28;20179;-61
2023/03/27 03:05:45;;;;;;;5.75;2.45;;;;;;;11.44;50.71;97068.84;5013072;28;20249;-62
2023/03/27 03:08:11;;;;;;;6.07;2.58;;;;;;;11.81;50.97;97125.84;5013005;28;20726;-61
2023/03/27 03:10:46;;;;;;;3.38;2.80;;;;;;;11.99;50.84;97156.03;4993311;28;20224;-61
2023/03/27 03:13:15;;;;;;;2.80;2.53;;;;;;;11.79;51.12;97117.41;4993402;28;20184;-61
2023/03/27 03:15:40;;;;;;;2.55;2.28;;;;;;;11.85;50.85;97151.31;4993307;28;20196;-61
2023/03/27 03:18:06;;;;;;;5.22;2.80;;;;;;;11.36;51.40;97073.09;4993145;28;20620;-61
2023/03/27 03:20:35;;;;;;;3.50;2.92;;;;;;;11.69;51.97;97140.75;4993174;28;20200;-61
2023/03/27 03:23:01;;;;;;;3.20;2.22;;;;;;;10.99;52.95;97054.97;4993140;28;20274;-61
2023/03/27 03:25:29;;;;;;;2.50;2.30;;;;;;;11.15;53.61;97116.50;4993131;28;20235;-61
2023/03/27 03:27:57;;;;;;;4.38;2.40;;;;;;;10.57;55.43;97094.25;4999020;28;20184;-61
2023/03/27 03:30:29;;;;;;;2.50;2.20;;;;;;;10.54;55.42;97100.50;5052288;28;20669;-61
2023/03/27 03:32:55;;;;;;;5.78;2.60;;;;;;;10.82;55.37;97129.91;5052417;28;20178;-61
2023/03/27 03:35:22;;;;;;;2.97;2.10;;;;;;;10.73;54.94;97090.16;5052287;28;20269;-61
2023/03/27 03:37:50;;;;;;;3.33;3.03;;;;;;;10.63;54.81;97047.94;5032241;28;20601;-61
2023/03/27 03:40:17;;;;;;;3.20;2.90;;;;;;;10.79;54.65;97042.22;5032186;28;20198;-61
2023/03/27 03:42:47;;;;;;;5.20;2.97;;;;;;;11.41;54.82;97120.94;5032147;28;20289;-61
2023/03/27 03:45:13;;;;;;;6.82;2.70;;;;;;;11.22;54.59;97082.16;5012278;28;20665;-61
2023/03/27 03:47:38;;;;;;;3.95;2.78;;;;;;;11.10;55.47;97059.16;5012345;28;20198;-61
2023/03/27 03:50:04;;;;;;;5.05;2.70;;;;;;;10.93;55.80;97049.53;5012299;28;20187;-61
2023/03/27 03:52:30;;;;;;;4.03;3.00;;;;;;;10.72;56.03;97036.78;5012278;28;20565;-61
2023/03/27 03:54:55;;;;;;;5.00;3.53;;;;;;;10.71;55.71;97029.97;5011619;28;20241;-60
2023/03/27 03:57:21;;;;;;;4.63;3.75;;;;;;;10.88;55.98;97051.72;5012157;28;20606;-61
2023/03/27 03:59:47;;;;;;;7.40;3.40;;;;;;;10.85;57.00;97093.41;5012110;28;20195;-61
2023/03/27 04:02:16;;;;;;;7.28;3.97;;;;;;;10.37;57.62;97021.03;5012082;28;20178;-61
2023/03/27 04:04:42;;;;;;;8.13;4.82;;;;;;;10.77;57.56;97070.00;5012050;28;20658;-61
2023/03/27 04:07:08;;;;;;;7.95;4.10;;;;;;;10.16;58.72;97014.41;5011994;28;20261;-61
2023/03/27 04:09:33;;;;;;;9.48;4.05;;;;;;;10.47;59.47;97091.69;5028330;28;20265;-61
2023/03/27 04:11:59;;;;;;;5.43;3.75;;;;;;;10.06;60.44;97065.25;5031608;28;20270;-61
2023/03/27 04:14:25;;;;;;;7.35;4.40;;;;;;;9.90;60.26;97036.50;5031592;28;20689;-61
2023/03/27 04:16:50;;;;;;;5.82;3.83;;;;;;;9.55;60.79;97005.19;5048385;28;20292;-61
2023/03/27 04:19:18;;;;;;;8.70;4.00;;;;;;;9.85;61.70;97069.66;5053772;28;20213;-61
2023/03/27 04:21:46;;;;;;;4.15;3.45;;;;;;;9.56;62.59;97050.69;5053671;28;20252;-61
2023/03/27 04:24:12;;;;;;;5.47;3.53;;;;;;;9.27;64.05;97073.00;5071182;28;20247;-61
2023/03/27 04:26:38;;;;;;;5.20;3.53;;;;;;;8.84;64.82;97020.81;5071183;28;20181;-61
2023/03/27 04:29:09;;;;;;;4.70;3.40;;;;;;;8.98;65.04;97043.69;5071139;28;20651;-61
2023/03/27 04:31:34;;;;;;;9.32;4.28;;;;;;;9.18;66.42;97078.13;5071086;28;20264;-61
2023/03/27 04:34:00;;;;;;;7.38;4.10;;;;;;;9.51;65.40;97081.28;5070995;28;20189;-61
2023/03/27 04:36:26;;;;;;;9.82;4.35;;;;;;;9.72;64.75;97069.09;5071310;28;20400;-61
2023/03/27 04:38:51;;;;;;;5.10;3.63;;;;;;;9.82;64.50;97075.09;5070797;28;20248;-60
2023/03/27 04:41:16;;;;;;;8.38;3.42;;;;;;;9.94;64.08;97063.72;5070890;28;20169;-61
2023/03/27 04:43:42;;;;;;;4.88;3.40;;;;;;;9.60;63.60;96995.28;5070837;28;20268;-61
2023/03/27 04:46:07;;;;;;;6.43;3.58;;;;;;;10.01;63.11;97049.28;5070612;28;20178;-61
2023/03/27 04:48:36;;;;;;;9.13;5.55;;;;;;;10.01;62.68;97028.63;5070718;28;20180;-61
2023/03/27 04:51:02;;;;;;;11.00;5.03;;;;;;;10.31;62.25;97062.13;5070698;28;20181;-60
2023/03/27 04:53:29;;;;;;;9.73;5.13;;;;;;;9.98;62.22;96990.16;5070663;28;20243;-61
2023/03/27 04:55:56;;;;;;;9.93;5.78;;;;;;;9.99;62.47;96989.19;5056514;28;20566;-61
2023/03/27 04:58:22;;;;;;;9.32;5.38;;;;;;;9.91;62.91;96982.13;5052884;28;20288;-61
2023/03/27 05:00:49;;;;;;;8.70;5.15;;;;;;;10.20;62.80;97011.38;5049818;28;20189;-61
2023/03/27 05:03:18;;;;;;;6.15;4.82;;;;;;;10.20;63.86;97046.75;5050300;28;20228;-61
2023/03/27 05:05:46;;;;;;;6.88;4.45;;;;;;;10.32;64.22;97079.25;5050224;28;20218;-61
2023/03/27 05:08:11;;;;;;;8.10;5.20;;;;;;;10.15;63.91;97036.03;5010045;28;20760;-61
2023/03/27 05:10:37;;;;;;;9.75;4.90;;;;;;;10.19;62.94;97017.53;5010468;28;20274;-60
2023/03/27 05:13:03;;;;;;;12.68;4.78;;;;;;;10.62;62.47;97082.53;5010591;28;20191;-60
2023/03/27 05:15:31;;;;;;;6.97;4.22;;;;;;;10.11;62.65;96982.97;5010754;28;20653;-63
2023/03/27 05:17:57;;;;;;;9.15;3.80;;;;;;;10.71;62.26;97078.31;5010492;28;20289;-61
2023/03/27 05:20:23;;;;;;;8.93;3.97;;;;;;;10.16;62.99;96983.38;5008938;28;20270;-61
2023/03/27 05:22:52;;;;;;;7.18;4.05;;;;;;;10.85;62.62;97075.31;5009402;28;20178;-61
2023/03/27 05:25:18;;;;;;;10.45;5.75;;;;;;;10.31;62.59;96994.91;5010241;28;20581;-61
2023/03/27 05:27:48;;;;;;;10.60;5.97;;;;;;;10.67;61.84;97022.63;5010519;28;20225;-61
2023/03/27 05:30:15;;;;;;;16.38;7.28;;;;;;;10.75;61.61;97020.16;5010520;28;20628;-61
2023/03/27 05:32:47;;;;;;;12.88;6.22;;;;;;;11.18;61.12;97064.44;5010338;28;20281;-60
2023/03/27 05:35:17;;;;;;;11.70;6.90;;;;;;;11.09;60.44;97018.72;5010333;28;20273;-61
2023/03/27 05:37:50;;;;;;;12.25;6.97;;;;;;;11.07;60.62;97005.06;5010291;28;20237;-61
2023/03/27 05:40:21;;;;;;;11.88;7.13;;;;;;;11.36;60.70;97040.25;5010294;28;20226;-61
2023/03/27 05:42:48;;;;;;;15.85;7.35;;;;;;;10.90;60.94;96978.19;5010610;28;20537;-61
2023/03/27 05:45:14;;;;;;;21.05;7.60;;;;;;;11.02;60.94;96997.75;5024538;28;20192;-60
2023/03/27 05:47:46;;;;;;;14.05;6.95;;;;;;;10.94;60.94;96970.94;5052434;28;20186;-61
2023/03/27 05:50:11;;;;;;;10.25;7.45;;;;;;;11.22;60.67;96986.38;5052148;28;20166;-60
2023/03/27 05:52:40;;;;;;;12.55;6.93;;;;;;;11.61;60.27;97020.69;5052146;28;20174;-61
2023/03/27 05:55:07;;;;;;;12.88;6.80;;;;;;;11.59;60.23;96996.69;5051918;28;20255;-60
2023/03/27 05:57:35;;;;;;;15.93;6.60;;;;;;;11.60;60.20;96993.94;5051978;28;20212;-60
2023/03/27 06:00:01;;;;;;;10.52;6.43;;;;;;;11.67;60.92;97048.59;5050176;28;20184;-61
2023/03/27 06:02:27;;;;;;;14.07;6.43;;;;;;;11.42;61.90;97010.38;5050116;28;20189;-61
2023/03/27 06:04:52;;;;;;;13.88;6.15;;;;;;;11.66;61.75;97016.69;5052102;28;20189;-61
2023/03/27 06:07:17;;;;;;;8.77;5.20;;;;;;;11.30;61.76;96939.03;5051992;28;20205;-61
2023/03/27 06:09:44;;;;;;;8.90;4.95;;;;;;;11.92;61.72;97025.41;5051923;28;20170;-61
2023/03/27 06:12:10;;;;;;;9.50;5.20;;;;;;;11.99;61.43;97012.63;5051953;28;20178;-61
2023/03/27 06:14:35;;;;;;;8.40;5.45;;;;;;;12.08;61.90;97009.97;5051884;28;20173;-60
2023/03/27 06:17:01;;;;;;;9.70;4.40;;;;;;;12.00;61.14;96985.75;5051207;28;20204;-61
2023/03/27 06:19:26;;;;;;;10.02;5.32;;;;;;;12.08;61.10;97011.78;5053769;28;20180;-61
2023/03/27 06:21:51;;;;;;;8.70;5.25;;;;;;;12.14;60.95;97013.75;5072618;28;20198;-61
2023/03/27 06:24:19;;;;;;;10.27;5.35;;;;;;;11.73;61.24;96940.00;5073125;28;20212;-61
2023/03/27 06:26:45;;;;;;;12.57;5.55;;;;;;;12.26;61.67;97009.97;5072065;28;20231;-61
2023/03/27 06:29:10;;;;;;;6.93;4.90;;;;;;;12.31;61.49;96999.97;5053263;28;20186;-61
2023/03/27 06:31:37;;;;;;;8.35;5.10;;;;;;;12.18;60.99;96964.06;5073081;28;20196;-61
2023/03/27 06:34:03;;;;;;;7.63;5.20;;;;;;;11.95;61.06;96930.94;5073341;28;20196;-61
2023/03/27 06:36:31;;;;;;;11.57;6.07;;;;;;;12.03;61.12;96936.22;5073225;28;20185;-60
2023/03/27 06:38:56;;;;;;;11.00;5.93;;;;;;;12.66;61.69;97025.88;5073124;28;20217;-61
2023/03/27 06:41:22;;;;;;;11.48;5.93;;;;;;;12.69;61.81;97023.78;5073192;28;20197;-61
2023/03/27 06:43:47;;;;;;;11.93;5.82;;;;;;;12.39;62.04;96976.69;5073006;28;20189;-61
2023/03/27 06:46:13;;;;;;;9.95;5.63;;;;;;;12.64;62.51;97010.44;5073066;28;20678;-61
2023/03/27 06:48:41;;;;;;;12.05;6.00;;;;;;;12.38;62.78;96967.28;5072963;28;20305;-60
2023/03/27 06:51:07;;;;;;;6.75;5.32;;;;;;;12.61;63.28;97007.34;5072941;28;20228;-60
2023/03/27 06:53:32;;;;;;;11.63;5.30;;;;;;;12.28;64.64;96987.31;5072916;28;20638;-60
2023/03/27 06:55:57;;;;;;;9.80;5.70;;;;;;;11.81;64.87;96892.63;5072726;28;20201;-61
2023/03/27 06:58:23;;;;;;;10.52;5.63;;;;;;;12.48;64.38;96994.75;5072832;28;20196;-61
2023/03/27 07:00:49;;;;;;;8.10;5.60;;;;;;;12.03;64.67;96918.06;5068350;28;20572;-61
2023/03/27 07:03:16;;;;;;;11.95;6.57;;;;;;;12.54;64.66;96995.94;5072757;28;20196;-61
2023/03/27 07:05:42;;;;;;;8.20;6.78;;;;;;;12.47;64.70;96974.97;5072771;28;20196;-61
2023/03/27 07:08:13;;;;;;;10.82;6.57;;;;;;;12.01;65.38;96922.59;5070123;28;20173;-61
2023/03/27 07:10:39;;;;;;;9.30;5.90;;;;;;;11.98;67.50;96957.41;5052652;28;20194;-61
2023/03/27 07:13:05;;;;;;;9.23;5.90;;;;;;;11.68;67.74;96887.81;5052668;28;20266;-61
2023/03/27 07:15:31;;;;;;;8.48;5.80;;;;;;;11.96;67.68;96911.88;5052685;28;20676;-61
2023/03/27 07:17:59;;;;;;;9.40;6.50;;;;;;;11.95;67.74;96925.75;5035892;28;20208;-61
2023/03/27 07:20:26;;;;;;;12.95;5.90;;;;;;;11.68;68.00;96846.34;5032554;28;20196;-61
2023/03/27 07:22:54;;;;;;;7.82;6.03;;;;;;;12.03;68.14;96905.13;5032607;28;20676;-61
2023/03/27 07:25:19;;;;;;;9.68;6.35;;;;;;;12.21;68.47;96911.06;5032564;28;20245;-61
2023/03/27 07:27:45;;;;;;;8.70;6.63;;;;;;;12.25;68.41;96879.50;5032503;28;20664;-61
2023/03/27 07:30:12;;;;;;;12.93;6.22;;;;;;;12.45;68.16;96913.84;4992184;28;20258;-61
2023/03/27 07:32:39;;;;;;;9.05;6.57;;;;;;;12.09;68.31;96843.09;5009489;28;20189;-60
2023/03/27 07:35:05;;;;;;;11.45;6.80;;;;;;;11.75;68.36;96756.72;5012588;28;20198;-61
2023/03/27 07:37:30;;;;;;;9.73;6.30;;;;;;;12.64;65.54;96866.91;5012541;28;20204;-61
2023/03/27 07:39:56;;;;;;;6.60;5.95;;;;;;;12.67;64.43;96840.66;5012499;28;20583;-61
2023/03/27 07:42:21;;;;;;;9.05;5.93;;;;;;;12.74;63.93;96815.72;5012527;28;20183;-61
2023/03/27 07:44:46;;;;;;;11.50;6.53;;;;;;;12.76;63.17;96769.66;5012444;28;20195;-61
2023/03/27 07:47:12;;;;;;;9.63;6.13;;;;;;;12.81;62.46;96747.44;5012404;28;20713;-61
2023/03/27 07:49:37;;;;;;;9.98;5.93;;;;;;;12.91;62.49;96749.91;5012277;28;20621;-61
2023/03/27 07:52:03;;;;;;;7.35;5.88;;;;;;;13.05;61.95;96749.28;5027697;28;20190;-61
2023/03/27 07:54:30;;;;;;;10.50;6.13;;;;;;;13.12;60.36;96742.50;5032000;28;20194;-61
2023/03/27 07:56:56;;;;;;;5.05;4.47;;;;;;;13.30;60.53;96761.34;5031619;28;20206;-61
2023/03/27 07:59:21;;;;;;;9.90;5.45;;;;;;;13.28;60.42;96721.72;5031950;28;20186;-61
2023/03/27 08:01:49;;;;;;;7.43;4.90;;;;;;;13.47;61.27;96719.59;5062376;28;20200;-61
2023/03/27 08:04:16;;;;;;;12.10;6.03;;;;;;;13.18;61.33;96648.38;5071815;28;20687;-61
2023/03/27 08:06:42;;;;;;;8.40;5.63;;;;;;;13.34;61.13;96611.97;5071711;28;20185;-61
2023/03/27 08:09:09;;;;;;;9.70;5.20;;;;;;;14.11;60.55;96656.25;5071657;28;20177;-61
2023/03/27 08:11:36;;;;;;;10.07;5.05;;;;;;;14.03;59.96;96592.09;5071626;28;20276;-61
2023/03/27 08:14:02;;;;;;;12.18;4.78;;;;;;;14.57;59.47;96616.38;5071614;28;20185;-61
2023/03/27 08:16:28;;;;;;;10.00;4.47;;;;;;;14.65;58.98;96569.44;5031422;28;20186;-61
2023/03/27 08:18:54;;;;;;;8.57;4.30;;;;;;;14.67;56.16;96507.59;5031343;28;20683;-61
2023/03/27 08:21:19;;;;;;;9.13;4.78;;;;;;;15.05;56.04;96535.25;5031369;28;20285;-61
2023/03/27 08:23:46;;;;;;;10.38;4.88;;;;;;;15.08;56.30;96503.63;5031545;28;20235;-61
2023/03/27 08:26:12;;;;;;;8.95;5.43;;;;;;;15.57;55.71;96562.88;5031488;28;20193;-61
2023/03/27 08:28:38;;;;;;;9.18;5.47;;;;;;;15.90;54.52;96582.34;5028033;28;20217;-61
2023/03/27 08:31:14;;;;;;;9.90;6.40;;;;;;;16.06;59.03;96629.13;5030021;28;20673;-61
2023/03/27 08:33:42;;;;;;;16.02;7.18;;;;;;;15.85;59.28;96589.91;5028714;28;20189;-61
2023/03/27 08:36:10;;;;;;;11.05;6.80;;;;;;;16.08;59.56;96634.13;5028902;28;20249;-61
2023/03/27 08:38:38;;;;;;;9.00;6.20;;;;;;;15.69;59.44;96553.59;5028615;28;20201;-61
2023/03/27 08:41:04;;;;;;;8.77;5.70;;;;;;;16.21;57.71;96649.97;5028353;28;20178;-61
2023/03/27 08:43:36;;;;;;;8.45;6.43;;;;;;;16.08;57.05;96618.47;5030074;28;20263;-61
2023/03/27 08:46:06;;;;;;;10.40;6.22;;;;;;;15.79;56.61;96582.00;5031053;28;20186;-61
2023/03/27 08:48:42;;;;;;;7.53;6.38;;;;;;;15.87;57.05;96594.94;5088825;28;20192;-61
2023/03/27 08:51:23;;;;;;;10.30;6.15;;;;;;;15.94;56.81;96611.50;5091096;28;20304;-61
2023/03/27 08:54:07;;;;;;;9.05;6.32;;;;;;;16.15;55.23;96637.66;5091022;28;20316;-61
2023/03/27 08:56:33;;;;;;;8.85;6.03;;;;;;;15.56;55.26;96537.00;5090797;28;20211;-61
2023/03/27 08:59:00;;;;;;;10.35;5.88;;;;;;;15.67;54.52;96554.75;5070304;28;20679;-61
2023/03/27 09:01:44;;;;;;;8.50;5.85;;;;;;;16.10;55.31;96627.75;5070415;28;20186;-61
2023/03/27 09:04:54;;;;;;;6.28;4.80;;;;;;;15.90;54.94;96579.75;5069237;28;20667;-61
2023/03/27 09:07:45;;;;;;;6.72;5.53;;;;;;;16.31;55.37;96637.41;5009693;28;20195;-61
2023/03/27 09:10:27;;;;;;;10.32;5.82;;;;;;;16.13;56.88;96596.09;5009887;28;20191;-61
2023/03/27 09:12:55;;;;;;;13.60;8.52;;;;;;;16.55;59.61;96637.16;5010888;28;20274;-61
2023/03/27 09:15:21;;;;;;;12.20;9.18;;;;;;;16.63;61.94;96618.75;4993579;28;20271;-61
2023/03/27 09:18:09;;;;;;;15.63;9.88;;;;;;;16.65;63.14;96611.50;4989827;28;20282;-61
2023/03/27 09:20:53;;;;;;;18.27;11.55;;;;;;;16.27;64.31;96521.38;4969214;28;20202;-61
2023/03/27 09:23:27;;;;;;;17.33;11.27;;;;;;;16.36;64.09;96534.09;4971667;28;20184;-61
2023/03/27 09:26:01;;;;;;;16.02;11.35;;;;;;;16.68;64.46;96546.66;4962855;28;20275;-61
2023/03/27 09:28:35;;;;;;;14.63;11.15;;;;;;;16.99;63.72;96567.22;4952347;29;20192;-61
2023/03/27 09:31:27;;;;;;;16.73;10.93;;;;;;;17.16;61.83;96573.78;4970172;28;20678;-61
2023/03/27 09:33:54;;;;;;;13.52;9.63;;;;;;;17.24;60.99;96565.78;4952113;29;20284;-61
2023/03/27 09:36:21;;;;;;;19.95;11.55;;;;;;;17.29;61.28;96559.00;4952131;29;20203;-61
2023/03/27 09:38:52;;;;;;;14.32;10.40;;;;;;;17.11;62.26;96500.38;4952063;29;20314;-61
2023/03/27 09:41:24;;;;;;;16.35;10.32;;;;;;;17.57;62.72;96546.75;4952009;29;20197;-60
2023/03/27 09:44:11;;;;;;;13.18;10.75;;;;;;;17.68;62.29;96553.22;4932751;29;20722;-61
2023/03/27 09:46:41;;;;;;;16.70;10.98;;;;;;;17.56;61.92;96521.56;4932589;29;20200;-61
2023/03/27 09:49:15;;;;;;;14.25;10.98;;;;;;;17.26;60.99;96448.81;4931551;29;20295;-61
2023/03/27 09:51:48;;;;;;;14.75;11.50;;;;;;;17.80;59.83;96510.63;4955839;28;20661;-61
2023/03/27 09:54:16;;;;;;;13.50;11.35;;;;;;;17.57;58.46;96475.31;4990212;28;20227;-61
2023/03/27 09:56:41;;;;;;;17.92;10.43;;;;;;;18.16;57.89;96553.03;4990467;28;20206;-61
2023/03/27 09:59:36;;;;;;;14.00;10.23;;;;;;;18.32;57.92;96557.94;4990471;28;20226;-61
2023/03/27 10:02:36;;;;;;;15.52;9.98;;;;;;;18.54;55.74;96548.13;4876001;29;20779;-61
2023/03/27 10:05:10;;;;;;;12.32;8.70;;;;;;;18.46;55.59;96529.94;4876044;29;20191;-61
2023/03/27 10:07:38;;;;;;;10.27;8.20;;;;;;;18.44;54.63;96524.94;4875890;29;20690;-61
2023/03/27 10:10:10;;;;;;;10.68;7.60;;;;;;;18.70;54.14;96552.94;4876071;29;20194;-60
2023/03/27 10:12:37;;;;;;;10.18;6.78;;;;;;;18.30;51.99;96472.72;4876126;29;20243;-60
2023/03/27 10:15:37;;;;;;;10.90;7.70;;;;;;;18.29;52.44;96486.78;4887149;29;20253;-60
2023/03/27 10:18:07;;;;;;;10.45;7.35;;;;;;;18.78;52.05;96548.31;4894600;29;20222;-60
2023/03/27 10:20:33;;;;;;;11.50;7.35;;;;;;;18.84;51.31;96536.25;4894580;29;20202;-61
2023/03/27 10:23:01;;;;;;;6.57;5.65;;;;;;;18.93;50.83;96548.13;4894732;29;20282;-61
2023/03/27 10:25:33;;;;;;;5.32;4.82;;;;;;;18.88;50.37;96537.47;4894642;29;20217;-61
2023/03/27 10:28:17;;;;;;;5.30;4.80;;;;;;;18.97;50.44;96549.34;4894557;29;20250;-61
2023/03/27 10:30:42;;;;;;;5.35;4.72;;;;;;;18.69;51.16;96512.03;4894728;29;20163;-60
2023/03/27 10:33:08;;;;;;;5.82;4.72;;;;;;;18.68;51.25;96505.19;4905148;29;20202;-61
2023/03/27 10:35:38;;;;;;;7.18;5.03;;;;;;;18.85;51.41;96522.94;4913497;29;20205;-60
2023/03/27 10:38:15;;;;;;;5.75;4.15;;;;;;;18.73;50.58;96487.06;4946798;28;20310;-61
2023/03/27 10:40:47;;;;;;;5.25;4.65;;;;;;;18.60;50.44;96453.00;5049372;28;20280;-61
2023/03/27 10:43:22;;;;;;;4.38;3.97;;;;;;;18.90;48.69;96462.06;5049480;28;20714;-61
2023/03/27 10:45:53;;;;;;;3.55;3.25;;;;;;;19.35;45.96;96492.66;5049424;28;20164;-61
2023/03/27 10:48:33;;;;;;;4.32;3.65;;;;;;;19.78;45.68;96509.47;5049357;28;20328;-61
2023/03/27 10:51:04;;;;;;;6.03;3.67;;;;;;;19.66;46.35;96442.91;5049392;28;20596;-61
2023/03/27 10:53:41;;;;;;;4.65;4.15;;;;;;;20.40;46.57;96527.97;5049361;28;20617;-60
2023/03/27 10:56:17;;;;;;;10.93;4.50;;;;;;;20.33;45.81;96448.41;5049182;28;20204;-61
2023/03/27 10:58:49;;;;;;;4.18;3.78;;;;;;;20.95;44.59;96493.00;5049285;28;20216;-61
2023/03/27 11:01:26;;;;;;;4.20;3.80;;;;;;;21.38;43.97;96488.56;5049254;28;20264;-61
2023/03/27 11:04:39;;;;;;;4.38;3.97;;;;;;;21.62;44.40;96503.47;5049308;28;20184;-61
2023/03/27 11:07:14;;;;;;;10.32;5.05;;;;;;;21.65;44.80;96445.13;4992674;28;20284;-61
2023/03/27 11:09:53;;;;;;;5.68;5.05;;;;;;;21.80;45.08;96469.28;4973356;28;20183;-61
2023/03/27 11:12:21;;;;;;;4.57;3.95;;;;;;;21.98;44.02;96458.69;4974142;28;20259;-61
2023/03/27 11:15:01;;;;;;;5.38;4.88;;;;;;;21.85;44.94;96422.03;4974023;28;20195;-61
2023/03/27 11:17:34;;;;;;;7.88;5.30;;;;;;;21.71;45.22;96357.38;4973953;28;20618;-61
2023/03/27 11:20:07;;;;;;;5.30;4.80;;;;;;;21.80;43.87;96353.44;4974223;28;20195;-61
2023/03/27 11:22:51;;;;;;;6.50;5.30;;;;;;;22.20;42.77;96386.06;4973975;28;20176;-61
2023/03/27 11:25:58;;;;;;;5.35;4.53;;;;;;;22.50;42.41;96421.06;4973823;28;21009;-61
2023/03/27 11:28:54;;;;;;;9.45;4.80;;;;;;;22.33;41.91;96377.94;4954416;29;20191;-61
2023/03/27 11:31:44;;;;;;;6.90;4.63;;;;;;;22.63;42.11;96389.22;4953359;28;20366;-61
2023/03/27 11:34:17;;;;;;;5.15;4.63;;;;;;;22.85;41.40;96387.63;4954382;29;20247;-61
2023/03/27 11:36:50;;;;;;;4.50;4.10;;;;;;;22.93;40.54;96366.16;4954146;29;20189;-61
2023/03/27 11:39:39;;;;;;;8.43;3.85;;;;;;;22.82;40.11;96298.41;4915979;29;20198;-61
2023/03/27 11:42:20;;;;;;;4.40;3.97;;;;;;;23.25;38.99;96333.88;4935994;29;20191;-61
2023/03/27 11:44:46;;;;;;;5.75;3.20;;;;;;;23.65;38.22;96365.56;4954212;29;20188;-61
2023/03/27 11:47:24;;;;;;;3.95;3.55;;;;;;;23.77;38.18;96350.47;4934797;29;20204;-61
2023/03/27 11:50:15;;;;;;;4.88;3.13;;;;;;;23.97;37.80;96351.66;4934920;29;20191;-61